Time;durP1;ratioP1;P1;durP2;ratioP2;P2;SDS_P1;SDS_P2;PMS_P1;PMS_P2;Temp;Humidity;BMP_temperature;BMP_pressure;BME280_temperature;BME280_humidity;BME280_pressure;Samples;Min_cycle;Max_cycle;Signal;HPM_P1;HPM_P2
2023/09/17 00:09:36;;;;;;;4.70;4.30;;;;;;;20.13;77.05;98921.88;7317117;39;21412;31
2023/09/17 00:15:10;;;;;;;4.40;4.00;;;;;;;19.95;78.24;98916.47;7282547;40;20367;31
2023/09/17 00:20:46;;;;;;;7.47;4.32;;;;;;;19.79;77.81;98921.53;7252967;40;20318;31
2023/09/17 00:26:19;;;;;;;5.60;3.90;;;;;;;19.80;78.46;98923.22;7237805;40;20249;31
2023/09/17 00:31:56;;;;;;;5.13;4.20;;;;;;;19.91;77.72;98920.75;7239137;40;20331;31
2023/09/17 00:37:31;;;;;;;7.28;4.72;;;;;;;19.78;78.24;98908.94;7232621;40;20372;31
2023/09/17 00:43:08;;;;;;;5.50;3.80;;;;;;;19.80;77.01;98905.97;7214260;40;20276;31
2023/09/17 00:48:43;;;;;;;5.70;4.57;;;;;;;19.59;78.33;98912.78;7224471;40;20354;31
2023/09/17 00:54:18;;;;;;;5.17;4.37;;;;;;;19.49;78.52;98906.19;7266523;40;20423;31
2023/09/17 00:59:54;;;;;;;4.80;4.30;;;;;;;19.48;78.88;98910.84;7250833;40;20253;31
2023/09/17 01:05:36;;;;;;;6.43;4.40;;;;;;;19.44;77.48;98908.81;7311328;39;20436;31
2023/09/17 01:11:04;;;;;;;4.97;3.83;;;;;;;19.56;77.59;98899.59;7259197;40;20335;31
2023/09/17 01:16:37;;;;;;;5.23;4.27;;;;;;;19.72;77.80;98901.66;7225796;40;20319;31
2023/09/17 01:22:10;;;;;;;7.47;4.10;;;;;;;19.62;77.31;98904.09;7229160;40;20460;31
2023/09/17 01:27:46;;;;;;;4.22;3.42;;;;;;;19.65;77.57;98914.59;7198591;40;20246;31
2023/09/17 01:33:09;;;;;;;5.73;4.00;;;;;;;19.76;76.85;98912.97;7209496;40;20369;31
2023/09/17 01:38:41;;;;;;;7.70;4.30;;;;;;;19.76;76.85;98912.97;7254312;40;20257;31
2023/09/17 01:49:24;;;;;;;7.03;4.80;;;;;;;19.73;77.10;98908.81;7269558;39;21140;31
2023/09/17 01:54:59;;;;;;;7.57;5.30;;;;;;;19.65;78.63;98911.03;7320016;39;20709;31
2023/09/17 02:05:39;;;;;;;6.35;5.60;;;;;;;19.82;78.90;98917.50;7297524;40;21408;31
2023/09/17 02:16:04;;;;;;;6.40;4.90;;;;;;;19.62;79.22;98925.16;7323755;39;20282;31
2023/09/17 02:21:40;;;;;;;7.64;4.90;;;;;;;19.68;78.70;98921.50;7340326;39;20262;31
2023/09/17 02:32:16;;;;;;;6.30;4.83;;;;;;;19.95;78.37;98941.94;7301599;39;21452;31
2023/09/17 02:37:54;;;;;;;7.07;5.23;;;;;;;19.77;78.78;98933.78;7290513;40;20382;31
2023/09/17 02:43:29;;;;;;;6.10;5.40;;;;;;;19.73;79.91;98924.38;7270112;39;20249;31
2023/09/17 02:48:58;;;;;;;;;;;;;;;;;;;;;
2023/09/17 02:54:23;;;;;;;7.00;5.90;;;;;;;19.72;79.17;98922.69;7259475;39;20361;31
2023/09/17 02:59:58;;;;;;;8.48;6.40;;;;;;;19.83;79.73;98915.62;7277665;39;20253;31
2023/09/17 03:10:42;;;;;;;6.93;6.23;;;;;;;19.91;79.06;98918.84;7297877;39;21792;31
2023/09/17 03:16:00;;;;;;;6.83;6.10;;;;;;;19.95;79.02;98911.84;7324973;39;20271;31
2023/09/17 03:21:40;;;;;;;7.77;6.20;;;;;;;19.87;79.81;98909.44;7276828;39;20284;31
2023/09/17 03:32:14;;;;;;;7.47;6.63;;;;;;;19.83;80.05;98902.78;7256522;40;21938;31
2023/09/17 03:42:51;;;;;;;7.50;6.50;;;;;;;19.84;79.80;98901.69;7339589;39;20283;31
2023/09/17 03:48:25;;;;;;;7.30;6.20;;;;;;;19.84;80.02;98895.37;7262106;40;20226;31
2023/09/17 03:53:47;;;;;;;8.50;6.13;;;;;;;19.88;80.16;98896.59;7258664;40;20241;31
2023/09/17 03:59:26;;;;;;;7.83;6.33;;;;;;;19.79;79.98;98896.06;7261057;40;20241;31
2023/09/17 04:05:07;;;;;;;6.50;5.75;;;;;;;19.89;80.53;98899.09;7217175;40;20237;31
2023/09/17 04:10:26;;;;;;;7.17;6.23;;;;;;;19.88;79.96;98902.06;7258028;39;20244;31
2023/09/17 04:16:00;;;;;;;7.20;6.50;;;;;;;19.78;80.16;98903.47;7297081;39;20264;31
2023/09/17 04:26:38;;;;;;;6.80;6.10;;;;;;;19.70;79.37;98903.78;7277628;39;21302;31
2023/09/17 04:31:59;;;;;;;7.37;6.12;;;;;;;19.75;79.84;98912.13;7255975;40;20326;31
2023/09/17 04:37:19;;;;;;;7.87;6.70;;;;;;;19.77;79.67;98915.47;7305344;39;20362;31
2023/09/17 04:42:52;;;;;;;7.27;6.27;;;;;;;19.82;80.13;98930.34;7319074;39;20248;31
2023/09/17 04:48:26;;;;;;;7.20;6.50;;;;;;;19.91;79.38;98928.97;7296022;39;20248;31
2023/09/17 04:53:47;;;;;;;9.15;6.37;;;;;;;19.85;79.70;98932.63;7267482;40;20784;31
2023/09/17 04:59:23;;;;;;;9.25;6.90;;;;;;;19.71;80.72;98932.81;7281298;39;20240;31
2023/09/17 05:04:44;;;;;;;10.88;7.05;;;;;;;19.71;80.60;98931.97;7328158;39;20782;31
2023/09/17 05:10:06;;;;;;;8.80;7.70;;;;;;;19.67;80.68;98930.75;7296271;40;20325;31
2023/09/17 05:15:42;;;;;;;7.80;7.00;;;;;;;19.65;79.85;98944.69;7276457;40;20342;31
2023/09/17 05:21:19;;;;;;;8.00;7.20;;;;;;;19.61;80.91;98948.13;7223835;40;20281;31
2023/09/17 05:26:38;;;;;;;9.07;7.63;;;;;;;19.62;81.34;98955.22;7246998;40;20406;31
2023/09/17 05:37:21;;;;;;;11.10;7.95;;;;;;;19.51;80.99;98954.13;7290935;39;20343;31
2023/09/17 05:43:00;;;;;;;10.75;8.25;;;;;;;19.50;81.96;98965.28;7255340;40;20241;31
2023/09/17 05:48:35;;;;;;;11.05;9.15;;;;;;;19.52;80.94;98969.47;7233445;40;20317;31
2023/09/17 05:54:11;;;;;;;8.90;8.10;;;;;;;19.32;82.56;98971.56;7241331;40;20343;31
2023/09/17 05:59:46;;;;;;;10.48;7.95;;;;;;;19.44;82.17;98968.94;7279590;40;20256;31
2023/09/17 06:05:07;;;;;;;7.77;6.93;;;;;;;19.49;81.36;98972.66;7201515;40;20420;31
2023/09/17 06:10:40;;;;;;;9.12;8.22;;;;;;;19.48;81.23;98972.91;7233904;40;20255;31
2023/09/17 06:16:04;;;;;;;10.03;7.90;;;;;;;19.55;81.57;98976.38;7230008;40;20398;31
2023/09/17 06:21:24;;;;;;;11.20;8.65;;;;;;;19.63;80.69;98971.41;7253999;40;20243;31
2023/09/17 06:27:00;;;;;;;11.03;8.67;;;;;;;19.69;82.30;98970.50;7244049;40;20234;31
2023/09/17 06:32:21;;;;;;;17.73;12.83;;;;;;;19.82;81.28;98977.69;7262156;40;20329;31
2023/09/17 06:37:57;;;;;;;11.53;9.13;;;;;;;19.98;80.78;98977.03;7259328;40;20307;31
2023/09/17 06:43:35;;;;;;;11.55;8.35;;;;;;;20.12;82.03;98983.16;7238767;40;20238;31
2023/09/17 06:49:10;;;;;;;9.27;7.75;;;;;;;20.24;80.46;98986.75;7212911;40;20355;31
2023/09/17 06:54:33;;;;;;;9.40;7.83;;;;;;;20.37;81.92;98978.34;7266806;40;20269;31
2023/09/17 07:00:09;;;;;;;8.27;7.43;;;;;;;20.48;81.49;98988.53;7290651;39;20240;31
2023/09/17 07:05:29;;;;;;;8.18;7.37;;;;;;;20.61;80.67;98985.56;7287490;40;20240;31
2023/09/17 07:10:50;;;;;;;8.05;6.93;;;;;;;20.77;80.63;98988.66;7320787;39;20318;31
2023/09/17 07:16:26;;;;;;;10.15;7.85;;;;;;;20.84;79.80;98992.12;7299194;40;20345;31
2023/09/17 07:21:46;;;;;;;7.78;6.95;;;;;;;21.00;79.64;98988.66;7284663;39;20260;31
2023/09/17 07:27:09;;;;;;;8.45;7.50;;;;;;;21.06;79.26;98996.75;7310837;39;20713;31
2023/09/17 07:32:40;;;;;;;;;;;;;;;;;;;;;
2023/09/17 07:38:07;;;;;;;8.43;7.47;;;;;;;21.23;79.36;98991.44;7321815;39;20680;31
2023/09/17 07:48:41;;;;;;;7.70;7.00;;;;;;;21.58;78.50;99000.44;7350194;39;22194;31
2023/09/17 07:54:17;;;;;;;9.25;6.80;;;;;;;21.74;78.45;99003.47;7340012;39;20661;31
2023/09/17 07:59:53;;;;;;;7.27;6.57;;;;;;;21.87;77.92;99003.19;7274362;39;20809;31
2023/09/17 08:05:25;;;;;;;7.07;6.37;;;;;;;22.01;77.28;99010.94;7207228;40;20459;31
2023/09/17 08:10:59;;;;;;;7.10;6.30;;;;;;;22.15;77.05;99016.13;7198618;40;22045;31
2023/09/17 08:16:19;;;;;;;7.43;6.30;;;;;;;22.27;76.45;99012.25;7217746;40;20445;31
2023/09/17 08:21:50;;;;;;;7.55;6.05;;;;;;;22.41;77.29;99007.28;7228514;40;20306;31
2023/09/17 08:27:34;;;;;;;;;;;;;;;;;;;;;
2023/09/17 08:33:01;;;;;;;7.90;6.30;;;;;;;22.91;76.87;99004.56;7206943;40;20328;31
2023/09/17 08:38:20;;;;;;;5.88;4.88;;;;;;;23.11;75.59;99004.88;7234805;39;20392;31
2023/09/17 08:49:02;;;;;;;8.03;4.63;;;;;;;23.50;73.61;98997.47;7297190;39;21918;31
2023/09/17 08:59:41;;;;;;;5.87;4.72;;;;;;;23.81;71.18;98993.19;7289341;39;21714;31
2023/09/17 09:05:18;;;;;;;5.85;4.47;;;;;;;23.99;71.10;98994.78;7298893;39;21213;31
2023/09/17 09:10:54;;;;;;;5.05;4.55;;;;;;;24.16;70.21;98999.12;7223899;40;20241;31
2023/09/17 09:16:26;;;;;;;4.57;4.17;;;;;;;24.31;69.53;99000.38;7174001;40;20426;31
2023/09/17 09:22:02;;;;;;;6.75;4.47;;;;;;;24.44;66.92;98992.50;7188749;40;20351;31
2023/09/17 09:27:38;;;;;;;7.00;4.40;;;;;;;24.64;67.21;98986.34;7198362;40;20307;31
2023/09/17 09:33:13;;;;;;;8.33;4.60;;;;;;;24.89;67.67;98988.50;7028719;40;20359;31
2023/09/17 09:38:49;;;;;;;6.50;4.32;;;;;;;24.96;66.19;98983.59;7203882;40;20490;31
2023/09/17 09:44:24;;;;;;;6.25;4.05;;;;;;;25.12;65.25;98988.97;7266147;40;20303;31
2023/09/17 09:50:00;;;;;;;6.72;4.30;;;;;;;25.22;65.29;98981.84;7193776;40;20422;31
2023/09/17 09:55:37;;;;;;;5.86;4.18;;;;;;;25.36;64.44;98977.50;7236411;40;20238;31
2023/09/17 10:01:15;;;;;;;6.70;4.10;;;;;;;25.50;64.24;98973.16;7248259;40;20258;31
2023/09/17 10:06:50;;;;;;;6.72;4.03;;;;;;;25.67;62.62;98978.53;7235532;40;20250;31
2023/09/17 10:12:27;;;;;;;7.45;4.20;;;;;;;25.66;62.55;98972.16;7213594;40;20246;31
2023/09/17 10:18:01;;;;;;;5.34;4.08;;;;;;;25.74;62.23;98974.41;7235083;40;20277;31
2023/09/17 10:28:41;;;;;;;5.70;3.72;;;;;;;25.91;60.95;98971.41;7250330;40;21366;31
2023/09/17 10:34:16;;;;;;;5.93;3.47;;;;;;;25.97;60.53;98957.37;7289117;40;20902;31
2023/09/17 10:39:51;;;;;;;9.95;4.60;;;;;;;26.06;60.04;98954.06;7280729;39;20340;31
2023/09/17 10:45:27;;;;;;;7.53;4.05;;;;;;;26.18;60.06;98946.34;7247633;40;20775;31
2023/09/17 10:51:03;;;;;;;5.05;3.70;;;;;;;26.30;59.66;98944.16;7256190;40;20786;31
2023/09/17 10:56:41;;;;;;;7.87;4.43;;;;;;;26.33;59.50;98940.84;7231515;40;20781;31
2023/09/17 11:02:13;;;;;;;7.50;4.30;;;;;;;26.46;58.97;98938.38;7225702;40;20277;31
2023/09/17 11:13:09;;;;;;;8.77;3.62;;;;;;;26.74;57.09;98945.28;7227819;40;21187;31
2023/09/17 11:18:46;;;;;;;6.25;3.65;;;;;;;26.73;56.57;98954.69;7215382;40;20339;31
2023/09/17 11:24:22;;;;;;;9.00;3.66;;;;;;;26.78;57.77;98953.84;7236599;40;20288;31
2023/09/17 11:35:04;;;;;;;6.03;3.37;;;;;;;27.10;56.64;98959.09;7201433;40;21127;31
2023/09/17 11:40:39;;;;;;;7.05;3.60;;;;;;;27.07;56.65;98951.38;7246135;40;20291;31
2023/09/17 11:46:13;;;;;;;9.25;3.40;;;;;;;27.15;56.58;98945.25;7233276;40;20296;31
2023/09/17 11:56:55;;;;;;;9.40;3.50;;;;;;;27.40;54.38;98936.03;7271332;40;21754;31
2023/09/17 12:02:29;;;;;;;8.35;3.60;;;;;;;27.58;54.55;98941.81;7254767;40;20223;31
2023/09/17 12:08:04;;;;;;;8.18;3.47;;;;;;;27.77;53.70;98936.47;7284881;39;20532;31
2023/09/17 12:13:40;;;;;;;7.15;3.37;;;;;;;27.88;52.80;98920.59;7299185;40;20334;31
2023/09/17 12:24:21;;;;;;;7.53;3.45;;;;;;;27.94;54.05;98903.69;7221519;40;21237;31
2023/09/17 12:29:57;;;;;;;7.28;3.30;;;;;;;28.03;53.89;98903.91;7252656;40;20343;31
2023/09/17 12:35:33;;;;;;;7.68;3.40;;;;;;;28.18;53.08;98895.50;7250687;40;20316;31
2023/09/17 12:40:53;;;;;;;8.00;3.20;;;;;;;28.28;52.75;98903.75;7217048;40;20246;31
2023/09/17 12:46:28;;;;;;;6.70;3.62;;;;;;;28.39;53.12;98883.13;7248151;40;20530;31
2023/09/17 12:52:03;;;;;;;4.50;3.25;;;;;;;28.52;51.29;98885.22;7210297;40;20260;31
2023/09/17 12:57:40;;;;;;;12.20;3.15;;;;;;;28.63;51.65;98895.13;7258311;40;20447;31
2023/09/17 13:03:24;;;;;;;8.95;3.10;;;;;;;28.60;50.59;98892.94;7177050;40;20243;31
2023/09/17 13:09:01;;;;;;;9.38;3.10;;;;;;;28.74;50.50;98889.50;7232832;40;20272;31
2023/09/17 13:14:34;;;;;;;7.35;3.00;;;;;;;28.82;49.41;98880.56;7238023;40;20252;31
2023/09/17 13:20:11;;;;;;;8.90;3.00;;;;;;;29.10;48.48;98868.56;7231748;40;20455;31
2023/09/17 13:25:31;;;;;;;7.80;2.80;;;;;;;29.06;48.68;98860.00;7244551;40;20424;31
2023/09/17 13:36:13;;;;;;;8.63;2.92;;;;;;;29.28;47.43;98839.19;7271683;39;20286;31
2023/09/17 13:41:49;;;;;;;7.10;2.65;;;;;;;29.34;45.29;98832.50;7288967;39;20814;31
2023/09/17 13:52:35;;;;;;;8.73;2.50;;;;;;;29.38;46.24;98808.56;7280765;40;20763;31
2023/09/17 13:57:57;;;;;;;5.37;2.55;;;;;;;29.43;45.60;98809.31;7290446;39;20346;31
2023/09/17 14:03:33;;;;;;;7.40;2.40;;;;;;;29.56;45.49;98804.97;7336311;39;20330;31
2023/09/17 14:14:14;;;;;;;5.30;2.58;;;;;;;29.49;43.47;98787.81;7331384;39;20389;31
2023/09/17 14:24:53;;;;;;;3.50;2.10;;;;;;;29.39;44.33;98779.66;7268498;39;20426;31
2023/09/17 14:30:29;;;;;;;7.65;2.30;;;;;;;29.29;44.57;98766.72;7238413;40;20471;31
2023/09/17 14:40:56;;;;;;;7.87;2.60;;;;;;;29.43;44.39;98764.88;7258021;40;20506;31
2023/09/17 14:46:34;;;;;;;6.08;2.60;;;;;;;29.41;44.59;98753.22;7282993;40;20491;31
2023/09/17 14:52:07;;;;;;;7.22;2.60;;;;;;;29.37;44.08;98762.44;7242992;40;20315;31
2023/09/17 14:57:28;;;;;;;6.70;2.40;;;;;;;29.41;44.97;98749.63;7278235;40;20249;31
2023/09/17 15:03:05;;;;;;;6.20;2.25;;;;;;;29.30;44.57;98748.94;7248487;40;20306;31
2023/09/17 15:08:25;;;;;;;5.03;2.10;;;;;;;29.28;43.76;98750.31;7300997;39;20507;31
2023/09/17 15:14:01;;;;;;;7.95;1.95;;;;;;;29.17;43.67;98744.13;7301393;39;20386;31
2023/09/17 15:19:38;;;;;;;4.92;2.18;;;;;;;29.19;42.91;98743.78;7296906;40;20303;31
2023/09/17 15:24:58;;;;;;;4.70;2.25;;;;;;;29.09;44.04;98739.22;7274200;40;20349;31
2023/09/17 15:30:20;;;;;;;7.55;2.05;;;;;;;29.04;43.67;98744.84;7287998;40;20240;31
2023/09/17 15:35:55;;;;;;;5.05;2.10;;;;;;;28.88;43.76;98732.28;7310900;39;20516;31
2023/09/17 15:41:16;;;;;;;11.23;2.40;;;;;;;28.84;43.58;98734.00;7274629;40;20513;31
2023/09/17 15:46:52;;;;;;;5.70;2.35;;;;;;;28.83;44.56;98726.81;7284818;39;20248;31
2023/09/17 15:52:28;;;;;;;6.00;2.10;;;;;;;28.87;42.79;98722.31;7286134;39;20252;31
2023/09/17 15:57:58;;;;;;;7.25;1.92;;;;;;;28.83;43.69;98727.59;7325637;39;20263;31
2023/09/17 16:03:33;;;;;;;4.35;2.20;;;;;;;28.79;44.93;98711.84;7254402;40;20284;31
2023/09/17 16:09:10;;;;;;;6.90;2.45;;;;;;;28.76;45.53;98721.63;7178694;40;20274;31
2023/09/17 16:19:49;;;;;;;7.35;2.30;;;;;;;28.57;47.14;98717.91;7211907;40;20269;31
2023/09/17 16:25:25;;;;;;;7.35;2.80;;;;;;;28.47;47.90;98721.66;7008907;40;21309;31
2023/09/17 16:30:45;;;;;;;7.37;2.80;;;;;;;28.46;48.21;98710.84;7220946;40;20238;31
2023/09/17 16:36:20;;;;;;;7.85;2.65;;;;;;;28.29;51.09;98704.94;7256871;40;20839;31
2023/09/17 16:41:58;;;;;;;6.50;2.80;;;;;;;28.13;51.30;98704.25;7207434;40;20328;31
2023/09/17 16:47:33;;;;;;;4.62;2.22;;;;;;;28.03;52.52;98705.19;7265718;40;20872;31
2023/09/17 16:53:09;;;;;;;8.20;2.72;;;;;;;27.89;54.00;98711.69;7276905;40;20271;31
2023/09/17 16:58:45;;;;;;;6.35;2.55;;;;;;;27.66;55.05;98704.97;7227787;40;20243;31
2023/09/17 17:04:05;;;;;;;8.24;2.24;;;;;;;27.26;56.16;98698.59;7216172;40;20288;31
2023/09/17 17:09:42;;;;;;;6.70;2.75;;;;;;;27.09;56.01;98689.00;7241608;40;20249;31
2023/09/17 17:15:21;;;;;;;3.92;2.33;;;;;;;26.99;56.96;98689.91;7284318;39;20542;31
2023/09/17 17:20:57;;;;;;;4.80;2.55;;;;;;;26.81;57.04;98688.56;7243391;40;20257;31
2023/09/17 17:26:32;;;;;;;6.40;2.50;;;;;;;26.69;57.18;98676.19;7219792;40;20436;31
2023/09/17 17:32:08;;;;;;;4.60;2.77;;;;;;;26.57;58.01;98679.31;7171124;40;20448;31
2023/09/17 17:37:29;;;;;;;7.40;2.90;;;;;;;26.50;57.34;98676.03;7240218;40;20265;31
2023/09/17 17:43:03;;;;;;;5.52;2.56;;;;;;;26.34;58.55;98680.75;7277965;39;20240;31
2023/09/17 17:48:41;;;;;;;8.80;3.10;;;;;;;26.13;59.59;98683.84;7223519;40;20262;31
2023/09/17 17:54:03;;;;;;;6.77;2.40;;;;;;;25.97;59.86;98675.59;7228186;40;20257;31
2023/09/17 17:59:42;;;;;;;5.37;2.73;;;;;;;25.77;61.03;98667.31;7258745;40;20245;31
2023/09/17 18:05:19;;;;;;;10.12;3.34;;;;;;;25.56;61.04;98660.19;7246267;40;20272;31
2023/09/17 18:10:40;;;;;;;6.13;2.80;;;;;;;25.38;60.99;98672.56;7281971;40;20256;31
2023/09/17 18:16:02;;;;;;;5.30;2.70;;;;;;;25.30;60.97;98664.00;7308380;39;20256;31
2023/09/17 18:21:37;;;;;;;7.90;3.00;;;;;;;25.13;61.63;98667.03;7270058;40;20245;31
2023/09/17 18:27:14;;;;;;;6.86;2.74;;;;;;;25.02;61.99;98663.41;7235813;40;20438;31
2023/09/17 18:32:34;;;;;;;6.43;2.87;;;;;;;24.83;62.52;98665.00;7303160;39;20256;31
2023/09/17 18:38:11;;;;;;;7.47;3.03;;;;;;;24.50;62.68;98648.91;7320380;39;20263;31
2023/09/17 18:43:31;;;;;;;5.55;2.85;;;;;;;24.37;62.87;98655.75;7291489;39;20233;31
2023/09/17 18:49:08;;;;;;;6.00;3.05;;;;;;;24.31;62.87;98648.53;7328926;39;21203;31
2023/09/17 18:54:45;;;;;;;9.30;3.40;;;;;;;24.24;63.29;98648.81;7282956;39;20263;31
2023/09/17 19:00:16;;;;;;;7.95;3.35;;;;;;;24.11;63.47;98640.16;7286333;39;20422;31
2023/09/17 19:05:48;;;;;;;10.80;3.12;;;;;;;23.92;63.15;98636.19;7314158;39;20414;31
2023/09/17 19:11:23;;;;;;;8.34;3.30;;;;;;;23.90;63.41;98639.22;7241439;40;20264;31
2023/09/17 19:16:44;;;;;;;10.30;3.90;;;;;;;23.86;64.09;98631.78;7253836;39;20879;31
2023/09/17 19:22:19;;;;;;;7.00;3.27;;;;;;;23.69;64.28;98618.19;7306432;39;20404;31
2023/09/17 19:27:57;;;;;;;7.53;3.20;;;;;;;23.51;65.26;98633.19;7309354;39;20313;31
2023/09/17 19:33:36;;;;;;;9.23;3.60;;;;;;;23.28;65.51;98636.28;7266904;40;20358;31
2023/09/17 19:38:57;;;;;;;9.95;3.50;;;;;;;23.08;66.71;98631.41;7239914;40;20784;31
2023/09/17 19:44:31;;;;;;;6.65;3.50;;;;;;;23.03;67.87;98627.81;7205454;40;20960;31
2023/09/17 19:50:08;;;;;;;11.10;4.32;;;;;;;23.09;66.29;98622.06;7266563;39;20962;31
2023/09/17 19:55:48;;;;;;;7.30;3.75;;;;;;;23.20;65.91;98618.34;7276243;39;20248;31
2023/09/17 20:01:28;;;;;;;6.87;3.60;;;;;;;23.22;65.57;98607.06;7258024;40;20507;31
2023/09/17 20:07:03;;;;;;;7.40;3.30;;;;;;;23.23;65.79;98601.31;7246214;40;20276;31
2023/09/17 20:13:01;;;;;;;6.32;3.30;;;;;;;23.20;66.05;98598.25;7261917;40;20241;31
2023/09/17 20:18:35;;;;;;;4.55;3.45;;;;;;;23.08;67.14;98592.91;7212404;40;20257;31
2023/09/17 20:23:55;;;;;;;9.85;3.40;;;;;;;22.89;67.61;98616.41;7207040;40;20327;31
2023/09/17 20:29:30;;;;;;;6.20;3.35;;;;;;;22.79;67.31;98597.91;7263314;40;20504;31
2023/09/17 20:35:03;;;;;;;5.80;3.40;;;;;;;22.79;67.78;98588.81;7264611;40;20298;31
2023/09/17 20:40:23;;;;;;;5.75;3.30;;;;;;;22.90;66.68;98591.37;7243002;40;20351;31
2023/09/17 20:51:05;;;;;;;8.30;3.70;;;;;;;22.62;68.26;98564.16;7266442;40;20745;31
2023/09/17 20:56:27;;;;;;;8.23;3.80;;;;;;;22.45;68.71;98561.53;7290295;39;20255;31
2023/09/17 21:01:47;;;;;;;6.47;3.22;;;;;;;22.25;69.87;98575.03;7351709;39;20270;31
2023/09/17 21:07:24;;;;;;;8.14;3.68;;;;;;;22.22;70.81;98567.31;7359477;39;20354;31
2023/09/17 21:17:49;;;;;;;6.40;3.65;;;;;;;22.58;68.96;98554.78;7289824;39;20272;31
2023/09/17 21:28:32;;;;;;;7.28;3.58;;;;;;;22.57;69.03;98553.13;7310199;39;21104;31
2023/09/17 21:34:09;;;;;;;7.55;3.22;;;;;;;22.57;69.00;98539.38;7278685;40;20334;31
2023/09/17 21:39:49;;;;;;;6.00;3.22;;;;;;;22.69;68.72;98525.47;7275062;40;20252;31
2023/09/17 21:50:31;;;;;;;8.33;3.97;;;;;;;22.79;67.03;98525.59;7277166;39;20271;31
2023/09/17 22:01:10;;;;;;;7.37;3.45;;;;;;;22.61;67.56;98525.97;7275325;39;21052;31
2023/09/17 22:11:54;;;;;;;8.57;3.67;;;;;;;22.29;70.03;98513.00;7288179;39;20272;31
2023/09/17 22:17:18;;;;;;;9.90;3.90;;;;;;;22.55;68.99;98505.88;7320883;39;20799;31
2023/09/17 22:22:51;;;;;;;6.80;3.10;;;;;;;22.68;68.20;98501.88;7340244;39;20444;31
2023/09/17 22:28:27;;;;;;;6.62;3.62;;;;;;;22.75;67.99;98491.50;7261420;40;20759;31
2023/09/17 22:33:47;;;;;;;11.00;3.40;;;;;;;22.88;67.20;98496.56;7199139;40;20785;31
2023/09/17 22:39:22;;;;;;;5.28;3.65;;;;;;;22.84;66.99;98478.94;7201681;40;21064;31
2023/09/17 22:44:58;;;;;;;8.17;3.87;;;;;;;22.41;69.12;98480.75;7207976;40;20474;31
2023/09/17 22:50:18;;;;;;;10.40;4.12;;;;;;;22.21;69.30;98474.19;7218047;40;20355;31
2023/09/17 22:55:40;;;;;;;5.03;3.22;;;;;;;22.05;70.30;98486.97;7275459;39;20245;31
2023/09/17 23:01:17;;;;;;;6.35;3.75;;;;;;;21.98;70.60;98478.91;7307200;39;20257;31
2023/09/17 23:06:52;;;;;;;5.27;3.27;;;;;;;21.91;70.38;98486.50;7284312;40;20342;31
2023/09/17 23:12:14;;;;;;;6.12;3.60;;;;;;;21.98;69.72;98486.34;7072762;40;20233;31
2023/09/17 23:17:46;;;;;;;6.95;4.12;;;;;;;21.78;70.96;98481.41;7242494;40;21437;31
2023/09/17 23:23:06;;;;;;;8.60;3.80;;;;;;;21.75;71.22;98481.91;7293370;39;20287;31
2023/09/17 23:28:41;;;;;;;6.20;3.90;;;;;;;21.55;72.20;98479.75;7255511;40;20276;31
2023/09/17 23:39:21;;;;;;;7.22;3.58;;;;;;;21.22;72.95;98455.19;7250636;39;20348;31
2023/09/17 23:49:45;;;;;;;6.00;3.45;;;;;;;21.17;73.51;98437.81;7327064;39;21831;31
2023/09/17 23:55:22;;;;;;;8.75;3.80;;;;;;;21.26;73.66;98434.41;7318055;39;20268;31
